sensor_id;sensor_type;location;lat;lon;timestamp;P1;durP1;ratioP1;P2;durP2;ratioP2
13163;SDS011;6647;53.688;10.746;2023-12-14T00:00:51;2.97;;;2.47;;
13163;SDS011;6647;53.688;10.746;2023-12-14T00:01:51;3.33;;;2.60;;
13163;SDS011;6647;53.688;10.746;2023-12-14T00:02:51;3.90;;;2.43;;
13163;SDS011;6647;53.688;10.746;2023-12-14T00:03:52;4.30;;;2.73;;
13163;SDS011;6647;53.688;10.746;2023-12-14T00:04:52;4.40;;;2.87;;
13163;SDS011;6647;53.688;10.746;2023-12-14T00:05:52;4.23;;;2.87;;
13163;SDS011;6647;53.688;10.746;2023-12-14T00:06:52;4.27;;;2.70;;
13163;SDS011;6647;53.688;10.746;2023-12-14T00:07:53;7.60;;;3.00;;
13163;SDS011;6647;53.688;10.746;2023-12-14T00:08:53;3.40;;;2.93;;
13163;SDS011;6647;53.688;10.746;2023-12-14T00:09:53;3.47;;;2.73;;
13163;SDS011;6647;53.688;10.746;2023-12-14T00:10:53;8.17;;;3.07;;
13163;SDS011;6647;53.688;10.746;2023-12-14T00:11:54;3.20;;;2.90;;
13163;SDS011;6647;53.688;10.746;2023-12-14T00:12:54;3.10;;;2.90;;
13163;SDS011;6647;53.688;10.746;2023-12-14T00:13:55;3.67;;;2.67;;
13163;SDS011;6647;53.688;10.746;2023-12-14T00:14:56;3.23;;;2.87;;
13163;SDS011;6647;53.688;10.746;2023-12-14T00:15:56;6.30;;;3.07;;
13163;SDS011;6647;53.688;10.746;2023-12-14T00:16:56;4.20;;;2.50;;
13163;SDS011;6647;53.688;10.746;2023-12-14T00:17:59;4.25;;;2.40;;
13163;SDS011;6647;53.688;10.746;2023-12-14T00:18:59;4.70;;;2.40;;
13163;SDS011;6647;53.688;10.746;2023-12-14T00:19:59;2.80;;;2.40;;
13163;SDS011;6647;53.688;10.746;2023-12-14T00:21:00;4.77;;;2.63;;
13163;SDS011;6647;53.688;10.746;2023-12-14T00:22:00;2.30;;;2.10;;
13163;SDS011;6647;53.688;10.746;2023-12-14T00:23:00;2.93;;;1.90;;
13163;SDS011;6647;53.688;10.746;2023-12-14T00:24:00;2.50;;;2.30;;
13163;SDS011;6647;53.688;10.746;2023-12-14T00:25:01;3.13;;;2.30;;
13163;SDS011;6647;53.688;10.746;2023-12-14T00:26:01;8.27;;;2.77;;
13163;SDS011;6647;53.688;10.746;2023-12-14T00:27:01;2.60;;;2.00;;
13163;SDS011;6647;53.688;10.746;2023-12-14T00:28:01;1.83;;;1.60;;
13163;SDS011;6647;53.688;10.746;2023-12-14T00:29:02;5.03;;;2.00;;
13163;SDS011;6647;53.688;10.746;2023-12-14T00:30:02;3.90;;;2.07;;
13163;SDS011;6647;53.688;10.746;2023-12-14T00:31:03;6.60;;;1.80;;
13163;SDS011;6647;53.688;10.746;2023-12-14T00:32:03;5.57;;;2.23;;
13163;SDS011;6647;53.688;10.746;2023-12-14T00:33:04;3.10;;;1.67;;
13163;SDS011;6647;53.688;10.746;2023-12-14T00:34:05;3.37;;;2.10;;
13163;SDS011;6647;53.688;10.746;2023-12-14T00:35:06;3.38;;;1.90;;
13163;SDS011;6647;53.688;10.746;2023-12-14T00:36:07;4.53;;;2.20;;
13163;SDS011;6647;53.688;10.746;2023-12-14T00:37:08;5.27;;;1.83;;
13163;SDS011;6647;53.688;10.746;2023-12-14T00:38:08;2.17;;;1.87;;
13163;SDS011;6647;53.688;10.746;2023-12-14T00:39:08;3.13;;;2.37;;
13163;SDS011;6647;53.688;10.746;2023-12-14T00:40:09;3.00;;;1.70;;
13163;SDS011;6647;53.688;10.746;2023-12-14T00:41:10;4.90;;;1.80;;
13163;SDS011;6647;53.688;10.746;2023-12-14T00:42:10;3.07;;;1.77;;
13163;SDS011;6647;53.688;10.746;2023-12-14T00:43:10;4.03;;;1.70;;
13163;SDS011;6647;53.688;10.746;2023-12-14T00:44:11;2.17;;;2.00;;
13163;SDS011;6647;53.688;10.746;2023-12-14T00:45:11;1.77;;;1.63;;
13163;SDS011;6647;53.688;10.746;2023-12-14T00:46:11;4.23;;;1.87;;
13163;SDS011;6647;53.688;10.746;2023-12-14T00:47:12;4.53;;;1.80;;
13163;SDS011;6647;53.688;10.746;2023-12-14T00:48:12;1.73;;;1.60;;
13163;SDS011;6647;53.688;10.746;2023-12-14T00:49:12;1.83;;;1.60;;
13163;SDS011;6647;53.688;10.746;2023-12-14T00:50:13;2.00;;;1.47;;
13163;SDS011;6647;53.688;10.746;2023-12-14T00:51:13;1.70;;;1.60;;
13163;SDS011;6647;53.688;10.746;2023-12-14T00:52:13;4.63;;;1.67;;
13163;SDS011;6647;53.688;10.746;2023-12-14T00:53:13;1.63;;;1.53;;
13163;SDS011;6647;53.688;10.746;2023-12-14T00:54:14;4.20;;;1.80;;
13163;SDS011;6647;53.688;10.746;2023-12-14T00:55:14;6.30;;;1.83;;
13163;SDS011;6647;53.688;10.746;2023-12-14T00:56:14;2.10;;;1.30;;
13163;SDS011;6647;53.688;10.746;2023-12-14T00:57:15;5.90;;;1.97;;
13163;SDS011;6647;53.688;10.746;2023-12-14T00:58:15;2.67;;;1.80;;
13163;SDS011;6647;53.688;10.746;2023-12-14T00:59:15;7.00;;;1.80;;
13163;SDS011;6647;53.688;10.746;2023-12-14T01:00:16;3.50;;;2.10;;
13163;SDS011;6647;53.688;10.746;2023-12-14T01:01:16;3.63;;;1.73;;
13163;SDS011;6647;53.688;10.746;2023-12-14T01:02:16;2.20;;;1.57;;
13163;SDS011;6647;53.688;10.746;2023-12-14T01:03:17;2.63;;;1.60;;
13163;SDS011;6647;53.688;10.746;2023-12-14T01:04:17;1.60;;;1.50;;
13163;SDS011;6647;53.688;10.746;2023-12-14T01:05:17;6.00;;;1.83;;
13163;SDS011;6647;53.688;10.746;2023-12-14T01:06:17;2.07;;;1.50;;
13163;SDS011;6647;53.688;10.746;2023-12-14T01:07:18;2.87;;;1.90;;
13163;SDS011;6647;53.688;10.746;2023-12-14T01:08:18;3.20;;;1.60;;
13163;SDS011;6647;53.688;10.746;2023-12-14T01:09:18;2.30;;;1.77;;
13163;SDS011;6647;53.688;10.746;2023-12-14T01:10:19;2.70;;;1.67;;
13163;SDS011;6647;53.688;10.746;2023-12-14T01:11:19;3.33;;;1.90;;
13163;SDS011;6647;53.688;10.746;2023-12-14T01:12:19;3.20;;;1.80;;
13163;SDS011;6647;53.688;10.746;2023-12-14T01:13:20;2.30;;;2.10;;
13163;SDS011;6647;53.688;10.746;2023-12-14T01:14:20;2.87;;;2.20;;
13163;SDS011;6647;53.688;10.746;2023-12-14T01:15:20;2.23;;;1.97;;
13163;SDS011;6647;53.688;10.746;2023-12-14T01:16:21;1.67;;;1.57;;
13163;SDS011;6647;53.688;10.746;2023-12-14T01:17:21;4.33;;;1.80;;
13163;SDS011;6647;53.688;10.746;2023-12-14T01:18:21;2.00;;;1.80;;
13163;SDS011;6647;53.688;10.746;2023-12-14T01:19:21;2.50;;;1.73;;
13163;SDS011;6647;53.688;10.746;2023-12-14T01:20:22;3.00;;;1.60;;
13163;SDS011;6647;53.688;10.746;2023-12-14T01:21:23;2.13;;;2.00;;
13163;SDS011;6647;53.688;10.746;2023-12-14T01:22:23;3.23;;;2.47;;
13163;SDS011;6647;53.688;10.746;2023-12-14T01:23:24;2.47;;;1.73;;
13163;SDS011;6647;53.688;10.746;2023-12-14T01:24:24;3.13;;;1.77;;
13163;SDS011;6647;53.688;10.746;2023-12-14T01:25:24;3.97;;;1.77;;
13163;SDS011;6647;53.688;10.746;2023-12-14T01:26:24;2.50;;;1.67;;
13163;SDS011;6647;53.688;10.746;2023-12-14T01:27:25;8.40;;;2.60;;
13163;SDS011;6647;53.688;10.746;2023-12-14T01:28:25;1.83;;;1.73;;
13163;SDS011;6647;53.688;10.746;2023-12-14T01:29:25;3.00;;;2.17;;
13163;SDS011;6647;53.688;10.746;2023-12-14T01:30:25;2.50;;;2.30;;
13163;SDS011;6647;53.688;10.746;2023-12-14T01:31:26;8.30;;;2.20;;
13163;SDS011;6647;53.688;10.746;2023-12-14T01:32:26;3.60;;;2.13;;
13163;SDS011;6647;53.688;10.746;2023-12-14T01:33:26;4.00;;;2.50;;
13163;SDS011;6647;53.688;10.746;2023-12-14T01:34:27;4.50;;;2.90;;
13163;SDS011;6647;53.688;10.746;2023-12-14T01:35:27;4.13;;;2.50;;
13163;SDS011;6647;53.688;10.746;2023-12-14T01:36:29;3.97;;;2.30;;
13163;SDS011;6647;53.688;10.746;2023-12-14T01:37:30;5.97;;;2.33;;
13163;SDS011;6647;53.688;10.746;2023-12-14T01:38:30;2.27;;;2.07;;
13163;SDS011;6647;53.688;10.746;2023-12-14T01:39:30;3.80;;;2.10;;
13163;SDS011;6647;53.688;10.746;2023-12-14T01:40:31;3.63;;;2.10;;
13163;SDS011;6647;53.688;10.746;2023-12-14T01:41:31;3.33;;;2.40;;
13163;SDS011;6647;53.688;10.746;2023-12-14T01:42:31;7.10;;;2.47;;
13163;SDS011;6647;53.688;10.746;2023-12-14T01:43:31;3.27;;;2.17;;
13163;SDS011;6647;53.688;10.746;2023-12-14T01:44:32;3.77;;;2.30;;
13163;SDS011;6647;53.688;10.746;2023-12-14T01:45:32;5.13;;;2.33;;
13163;SDS011;6647;53.688;10.746;2023-12-14T01:46:32;3.60;;;2.40;;
13163;SDS011;6647;53.688;10.746;2023-12-14T01:47:33;3.23;;;2.70;;
13163;SDS011;6647;53.688;10.746;2023-12-14T01:48:33;6.10;;;2.60;;
13163;SDS011;6647;53.688;10.746;2023-12-14T01:49:33;5.57;;;2.57;;
13163;SDS011;6647;53.688;10.746;2023-12-14T01:50:34;6.40;;;3.27;;
13163;SDS011;6647;53.688;10.746;2023-12-14T01:51:34;3.93;;;2.30;;
13163;SDS011;6647;53.688;10.746;2023-12-14T01:52:35;2.75;;;2.25;;
13163;SDS011;6647;53.688;10.746;2023-12-14T01:53:35;2.00;;;1.80;;
13163;SDS011;6647;53.688;10.746;2023-12-14T01:54:36;4.27;;;2.37;;
13163;SDS011;6647;53.688;10.746;2023-12-14T01:55:36;4.40;;;2.50;;
13163;SDS011;6647;53.688;10.746;2023-12-14T01:56:36;4.53;;;1.97;;
13163;SDS011;6647;53.688;10.746;2023-12-14T01:57:36;3.80;;;2.47;;
13163;SDS011;6647;53.688;10.746;2023-12-14T01:58:37;6.83;;;2.67;;
13163;SDS011;6647;53.688;10.746;2023-12-14T01:59:37;5.40;;;2.90;;
13163;SDS011;6647;53.688;10.746;2023-12-14T02:01:41;3.60;;;2.60;;
13163;SDS011;6647;53.688;10.746;2023-12-14T02:02:42;2.80;;;2.45;;
13163;SDS011;6647;53.688;10.746;2023-12-14T02:03:43;3.60;;;2.17;;
13163;SDS011;6647;53.688;10.746;2023-12-14T02:04:45;2.83;;;2.17;;
13163;SDS011;6647;53.688;10.746;2023-12-14T02:05:45;5.13;;;2.70;;
13163;SDS011;6647;53.688;10.746;2023-12-14T02:06:45;6.57;;;1.90;;
13163;SDS011;6647;53.688;10.746;2023-12-14T02:07:45;3.50;;;2.40;;
13163;SDS011;6647;53.688;10.746;2023-12-14T02:08:46;10.67;;;2.60;;
13163;SDS011;6647;53.688;10.746;2023-12-14T02:09:46;3.00;;;2.73;;
13163;SDS011;6647;53.688;10.746;2023-12-14T02:10:46;4.63;;;2.47;;
13163;SDS011;6647;53.688;10.746;2023-12-14T02:11:48;3.17;;;2.55;;
13163;SDS011;6647;53.688;10.746;2023-12-14T02:12:48;5.63;;;2.17;;
13163;SDS011;6647;53.688;10.746;2023-12-14T02:13:48;4.00;;;2.73;;
13163;SDS011;6647;53.688;10.746;2023-12-14T02:14:49;3.50;;;2.70;;
13163;SDS011;6647;53.688;10.746;2023-12-14T02:15:49;2.37;;;2.17;;
13163;SDS011;6647;53.688;10.746;2023-12-14T02:16:50;4.13;;;2.67;;
13163;SDS011;6647;53.688;10.746;2023-12-14T02:17:50;5.60;;;2.77;;
13163;SDS011;6647;53.688;10.746;2023-12-14T02:18:50;7.70;;;3.30;;
13163;SDS011;6647;53.688;10.746;2023-12-14T02:19:51;5.43;;;2.87;;
13163;SDS011;6647;53.688;10.746;2023-12-14T02:20:51;4.53;;;2.47;;
13163;SDS011;6647;53.688;10.746;2023-12-14T02:21:52;7.00;;;2.47;;
13163;SDS011;6647;53.688;10.746;2023-12-14T02:22:55;7.60;;;2.90;;
13163;SDS011;6647;53.688;10.746;2023-12-14T02:23:55;5.25;;;2.75;;
13163;SDS011;6647;53.688;10.746;2023-12-14T02:24:55;3.17;;;2.33;;
13163;SDS011;6647;53.688;10.746;2023-12-14T02:25:56;3.87;;;2.50;;
13163;SDS011;6647;53.688;10.746;2023-12-14T02:26:56;5.23;;;2.73;;
13163;SDS011;6647;53.688;10.746;2023-12-14T02:27:57;4.13;;;2.58;;
13163;SDS011;6647;53.688;10.746;2023-12-14T02:28:57;6.20;;;2.90;;
13163;SDS011;6647;53.688;10.746;2023-12-14T02:29:58;5.77;;;3.30;;
13163;SDS011;6647;53.688;10.746;2023-12-14T02:30:58;3.37;;;2.67;;
13163;SDS011;6647;53.688;10.746;2023-12-14T02:31:58;4.77;;;3.37;;
13163;SDS011;6647;53.688;10.746;2023-12-14T02:32:58;3.40;;;3.10;;
13163;SDS011;6647;53.688;10.746;2023-12-14T02:33:59;7.70;;;3.53;;
13163;SDS011;6647;53.688;10.746;2023-12-14T02:34:59;8.70;;;3.47;;
13163;SDS011;6647;53.688;10.746;2023-12-14T02:35:59;4.87;;;3.70;;
13163;SDS011;6647;53.688;10.746;2023-12-14T02:37:00;5.93;;;3.50;;
13163;SDS011;6647;53.688;10.746;2023-12-14T02:38:00;7.57;;;4.20;;
13163;SDS011;6647;53.688;10.746;2023-12-14T02:39:00;4.37;;;3.40;;
13163;SDS011;6647;53.688;10.746;2023-12-14T02:40:01;11.10;;;3.87;;
13163;SDS011;6647;53.688;10.746;2023-12-14T02:41:01;8.27;;;3.50;;
13163;SDS011;6647;53.688;10.746;2023-12-14T02:42:01;7.33;;;3.90;;
13163;SDS011;6647;53.688;10.746;2023-12-14T02:43:01;5.67;;;3.80;;
13163;SDS011;6647;53.688;10.746;2023-12-14T02:44:02;5.43;;;3.80;;
13163;SDS011;6647;53.688;10.746;2023-12-14T02:45:03;6.97;;;3.80;;
13163;SDS011;6647;53.688;10.746;2023-12-14T02:46:03;8.88;;;3.90;;
13163;SDS011;6647;53.688;10.746;2023-12-14T02:47:04;6.00;;;4.23;;
13163;SDS011;6647;53.688;10.746;2023-12-14T02:48:04;13.20;;;4.00;;
13163;SDS011;6647;53.688;10.746;2023-12-14T02:49:04;7.80;;;4.10;;
13163;SDS011;6647;53.688;10.746;2023-12-14T02:50:05;7.83;;;3.73;;
13163;SDS011;6647;53.688;10.746;2023-12-14T02:51:06;6.40;;;3.83;;
13163;SDS011;6647;53.688;10.746;2023-12-14T02:52:07;7.47;;;3.93;;
13163;SDS011;6647;53.688;10.746;2023-12-14T02:53:07;7.70;;;4.30;;
13163;SDS011;6647;53.688;10.746;2023-12-14T02:54:07;6.30;;;4.00;;
13163;SDS011;6647;53.688;10.746;2023-12-14T02:55:08;7.13;;;4.07;;
13163;SDS011;6647;53.688;10.746;2023-12-14T02:56:09;7.40;;;4.40;;
13163;SDS011;6647;53.688;10.746;2023-12-14T02:57:09;4.85;;;4.00;;
13163;SDS011;6647;53.688;10.746;2023-12-14T02:58:09;9.60;;;4.37;;
13163;SDS011;6647;53.688;10.746;2023-12-14T02:59:10;5.60;;;3.97;;
13163;SDS011;6647;53.688;10.746;2023-12-14T03:00:10;4.70;;;3.30;;
13163;SDS011;6647;53.688;10.746;2023-12-14T03:01:11;4.17;;;3.77;;
13163;SDS011;6647;53.688;10.746;2023-12-14T03:02:11;4.40;;;3.97;;
13163;SDS011;6647;53.688;10.746;2023-12-14T03:03:11;4.80;;;3.60;;
13163;SDS011;6647;53.688;10.746;2023-12-14T03:04:12;6.03;;;3.90;;
13163;SDS011;6647;53.688;10.746;2023-12-14T03:05:12;6.10;;;3.20;;
13163;SDS011;6647;53.688;10.746;2023-12-14T03:06:12;5.10;;;3.07;;
13163;SDS011;6647;53.688;10.746;2023-12-14T03:07:13;3.30;;;2.70;;
13163;SDS011;6647;53.688;10.746;2023-12-14T03:08:13;6.47;;;2.80;;
13163;SDS011;6647;53.688;10.746;2023-12-14T03:09:13;5.73;;;3.47;;
13163;SDS011;6647;53.688;10.746;2023-12-14T03:10:14;5.20;;;2.80;;
13163;SDS011;6647;53.688;10.746;2023-12-14T03:11:21;6.10;;;3.03;;
13163;SDS011;6647;53.688;10.746;2023-12-14T03:12:22;6.38;;;3.10;;
13163;SDS011;6647;53.688;10.746;2023-12-14T03:13:22;3.27;;;2.63;;
13163;SDS011;6647;53.688;10.746;2023-12-14T03:14:23;4.73;;;2.77;;
13163;SDS011;6647;53.688;10.746;2023-12-14T03:15:23;4.77;;;3.20;;
13163;SDS011;6647;53.688;10.746;2023-12-14T03:16:24;2.60;;;2.40;;
13163;SDS011;6647;53.688;10.746;2023-12-14T03:17:24;3.30;;;3.00;;
13163;SDS011;6647;53.688;10.746;2023-12-14T03:18:25;5.77;;;2.30;;
13163;SDS011;6647;53.688;10.746;2023-12-14T03:19:25;3.87;;;2.53;;
13163;SDS011;6647;53.688;10.746;2023-12-14T03:20:25;4.13;;;2.80;;
13163;SDS011;6647;53.688;10.746;2023-12-14T03:21:25;3.33;;;2.67;;
13163;SDS011;6647;53.688;10.746;2023-12-14T03:22:26;3.33;;;2.70;;
13163;SDS011;6647;53.688;10.746;2023-12-14T03:23:26;8.60;;;3.17;;
13163;SDS011;6647;53.688;10.746;2023-12-14T03:24:26;6.40;;;2.83;;
13163;SDS011;6647;53.688;10.746;2023-12-14T03:25:27;4.23;;;2.90;;
13163;SDS011;6647;53.688;10.746;2023-12-14T03:26:27;6.30;;;3.23;;
13163;SDS011;6647;53.688;10.746;2023-12-14T03:27:28;3.00;;;2.60;;
13163;SDS011;6647;53.688;10.746;2023-12-14T03:28:28;5.53;;;3.17;;
13163;SDS011;6647;53.688;10.746;2023-12-14T03:29:28;5.80;;;3.27;;
13163;SDS011;6647;53.688;10.746;2023-12-14T03:30:29;6.53;;;2.73;;
13163;SDS011;6647;53.688;10.746;2023-12-14T03:31:29;4.37;;;2.97;;
13163;SDS011;6647;53.688;10.746;2023-12-14T03:32:29;4.10;;;2.80;;
13163;SDS011;6647;53.688;10.746;2023-12-14T03:33:30;4.70;;;3.73;;
13163;SDS011;6647;53.688;10.746;2023-12-14T03:34:30;6.40;;;3.27;;
13163;SDS011;6647;53.688;10.746;2023-12-14T03:35:30;4.80;;;3.33;;
13163;SDS011;6647;53.688;10.746;2023-12-14T03:36:31;4.43;;;3.27;;
13163;SDS011;6647;53.688;10.746;2023-12-14T03:37:31;3.80;;;3.40;;
13163;SDS011;6647;53.688;10.746;2023-12-14T03:38:31;6.60;;;3.50;;
13163;SDS011;6647;53.688;10.746;2023-12-14T03:39:32;7.28;;;3.30;;
13163;SDS011;6647;53.688;10.746;2023-12-14T03:40:33;5.90;;;3.50;;
13163;SDS011;6647;53.688;10.746;2023-12-14T03:41:33;7.30;;;3.30;;
13163;SDS011;6647;53.688;10.746;2023-12-14T03:42:34;5.10;;;3.40;;
13163;SDS011;6647;53.688;10.746;2023-12-14T03:43:35;5.25;;;3.10;;
13163;SDS011;6647;53.688;10.746;2023-12-14T03:44:35;5.50;;;3.77;;
13163;SDS011;6647;53.688;10.746;2023-12-14T03:45:36;8.43;;;3.20;;
13163;SDS011;6647;53.688;10.746;2023-12-14T03:46:36;3.43;;;3.10;;
13163;SDS011;6647;53.688;10.746;2023-12-14T03:47:36;5.60;;;3.80;;
13163;SDS011;6647;53.688;10.746;2023-12-14T03:48:37;7.00;;;3.30;;
13163;SDS011;6647;53.688;10.746;2023-12-14T03:49:37;7.87;;;2.97;;
13163;SDS011;6647;53.688;10.746;2023-12-14T03:50:38;5.15;;;3.40;;
13163;SDS011;6647;53.688;10.746;2023-12-14T03:51:39;9.57;;;3.67;;
13163;SDS011;6647;53.688;10.746;2023-12-14T03:52:40;5.03;;;2.90;;
13163;SDS011;6647;53.688;10.746;2023-12-14T03:53:40;4.67;;;3.10;;
13163;SDS011;6647;53.688;10.746;2023-12-14T03:54:40;5.20;;;3.30;;
13163;SDS011;6647;53.688;10.746;2023-12-14T03:55:41;7.63;;;3.43;;
13163;SDS011;6647;53.688;10.746;2023-12-14T03:56:41;3.23;;;2.80;;
13163;SDS011;6647;53.688;10.746;2023-12-14T03:57:41;5.43;;;3.13;;
13163;SDS011;6647;53.688;10.746;2023-12-14T03:58:42;3.67;;;3.03;;
13163;SDS011;6647;53.688;10.746;2023-12-14T03:59:42;4.10;;;3.23;;
13163;SDS011;6647;53.688;10.746;2023-12-14T04:00:42;4.97;;;3.50;;
13163;SDS011;6647;53.688;10.746;2023-12-14T04:01:42;10.50;;;3.80;;
13163;SDS011;6647;53.688;10.746;2023-12-14T04:02:43;3.87;;;3.57;;
13163;SDS011;6647;53.688;10.746;2023-12-14T04:03:43;6.60;;;3.83;;
13163;SDS011;6647;53.688;10.746;2023-12-14T04:04:44;8.10;;;4.57;;
13163;SDS011;6647;53.688;10.746;2023-12-14T04:05:45;6.50;;;3.70;;
13163;SDS011;6647;53.688;10.746;2023-12-14T04:06:45;5.47;;;3.90;;
13163;SDS011;6647;53.688;10.746;2023-12-14T04:07:46;5.90;;;4.33;;
13163;SDS011;6647;53.688;10.746;2023-12-14T04:08:46;6.47;;;3.83;;
13163;SDS011;6647;53.688;10.746;2023-12-14T04:09:46;6.97;;;3.87;;
13163;SDS011;6647;53.688;10.746;2023-12-14T04:10:46;8.67;;;3.67;;
13163;SDS011;6647;53.688;10.746;2023-12-14T04:11:47;7.57;;;4.40;;
13163;SDS011;6647;53.688;10.746;2023-12-14T04:12:47;5.90;;;4.40;;
13163;SDS011;6647;53.688;10.746;2023-12-14T04:13:47;6.70;;;4.10;;
13163;SDS011;6647;53.688;10.746;2023-12-14T04:14:50;9.93;;;4.20;;
13163;SDS011;6647;53.688;10.746;2023-12-14T04:15:51;6.10;;;4.20;;
13163;SDS011;6647;53.688;10.746;2023-12-14T04:16:51;6.53;;;4.70;;
13163;SDS011;6647;53.688;10.746;2023-12-14T04:17:51;8.13;;;4.60;;
13163;SDS011;6647;53.688;10.746;2023-12-14T04:18:52;8.73;;;3.60;;
13163;SDS011;6647;53.688;10.746;2023-12-14T04:19:52;8.67;;;3.77;;
13163;SDS011;6647;53.688;10.746;2023-12-14T04:20:53;5.47;;;3.70;;
13163;SDS011;6647;53.688;10.746;2023-12-14T04:21:53;7.20;;;3.83;;
13163;SDS011;6647;53.688;10.746;2023-12-14T04:22:54;10.40;;;4.43;;
13163;SDS011;6647;53.688;10.746;2023-12-14T04:23:55;4.75;;;4.05;;
13163;SDS011;6647;53.688;10.746;2023-12-14T04:24:55;7.07;;;4.40;;
13163;SDS011;6647;53.688;10.746;2023-12-14T04:25:55;4.87;;;3.70;;
13163;SDS011;6647;53.688;10.746;2023-12-14T04:26:56;7.77;;;4.70;;
13163;SDS011;6647;53.688;10.746;2023-12-14T04:27:56;6.40;;;4.63;;
13163;SDS011;6647;53.688;10.746;2023-12-14T04:28:56;7.23;;;4.10;;
13163;SDS011;6647;53.688;10.746;2023-12-14T04:29:57;6.17;;;3.60;;
13163;SDS011;6647;53.688;10.746;2023-12-14T04:30:57;4.30;;;3.90;;
13163;SDS011;6647;53.688;10.746;2023-12-14T04:31:57;7.13;;;4.37;;
13163;SDS011;6647;53.688;10.746;2023-12-14T04:32:58;8.63;;;4.37;;
13163;SDS011;6647;53.688;10.746;2023-12-14T04:33:58;7.50;;;4.27;;
13163;SDS011;6647;53.688;10.746;2023-12-14T04:34:58;5.10;;;3.73;;
13163;SDS011;6647;53.688;10.746;2023-12-14T04:35:59;4.77;;;3.27;;
13163;SDS011;6647;53.688;10.746;2023-12-14T04:36:59;4.97;;;3.77;;
13163;SDS011;6647;53.688;10.746;2023-12-14T04:37:59;5.97;;;3.70;;
13163;SDS011;6647;53.688;10.746;2023-12-14T04:39:00;4.57;;;3.93;;
13163;SDS011;6647;53.688;10.746;2023-12-14T04:40:00;5.37;;;4.00;;
13163;SDS011;6647;53.688;10.746;2023-12-14T04:41:00;8.10;;;4.40;;
13163;SDS011;6647;53.688;10.746;2023-12-14T04:42:01;8.57;;;4.10;;
13163;SDS011;6647;53.688;10.746;2023-12-14T04:43:01;7.40;;;3.87;;
13163;SDS011;6647;53.688;10.746;2023-12-14T04:44:02;4.70;;;3.80;;
13163;SDS011;6647;53.688;10.746;2023-12-14T04:45:03;10.57;;;4.30;;
13163;SDS011;6647;53.688;10.746;2023-12-14T04:46:04;7.10;;;4.57;;
13163;SDS011;6647;53.688;10.746;2023-12-14T04:47:06;5.63;;;4.05;;
13163;SDS011;6647;53.688;10.746;2023-12-14T04:48:08;10.13;;;3.70;;
13163;SDS011;6647;53.688;10.746;2023-12-14T04:49:08;5.83;;;3.87;;
13163;SDS011;6647;53.688;10.746;2023-12-14T04:50:08;6.90;;;5.20;;
13163;SDS011;6647;53.688;10.746;2023-12-14T04:51:12;5.27;;;3.90;;
13163;SDS011;6647;53.688;10.746;2023-12-14T04:52:13;8.55;;;4.40;;
13163;SDS011;6647;53.688;10.746;2023-12-14T04:53:14;6.63;;;3.87;;
13163;SDS011;6647;53.688;10.746;2023-12-14T04:54:14;5.43;;;4.30;;
13163;SDS011;6647;53.688;10.746;2023-12-14T04:55:15;6.40;;;4.20;;
13163;SDS011;6647;53.688;10.746;2023-12-14T04:56:15;9.07;;;3.93;;
13163;SDS011;6647;53.688;10.746;2023-12-14T04:57:15;7.17;;;3.70;;
13163;SDS011;6647;53.688;10.746;2023-12-14T04:58:16;6.27;;;4.23;;
13163;SDS011;6647;53.688;10.746;2023-12-14T04:59:16;10.53;;;4.63;;
13163;SDS011;6647;53.688;10.746;2023-12-14T05:00:16;5.90;;;3.40;;
13163;SDS011;6647;53.688;10.746;2023-12-14T05:01:17;6.00;;;4.13;;
13163;SDS011;6647;53.688;10.746;2023-12-14T05:02:17;6.53;;;3.70;;
13163;SDS011;6647;53.688;10.746;2023-12-14T05:03:17;6.57;;;4.03;;
13163;SDS011;6647;53.688;10.746;2023-12-14T05:04:18;5.50;;;3.70;;
13163;SDS011;6647;53.688;10.746;2023-12-14T05:05:18;4.67;;;3.90;;
13163;SDS011;6647;53.688;10.746;2023-12-14T05:06:18;5.17;;;3.70;;
13163;SDS011;6647;53.688;10.746;2023-12-14T05:07:19;4.73;;;3.33;;
13163;SDS011;6647;53.688;10.746;2023-12-14T05:08:19;6.03;;;3.80;;
13163;SDS011;6647;53.688;10.746;2023-12-14T05:09:19;7.90;;;3.97;;
13163;SDS011;6647;53.688;10.746;2023-12-14T05:10:19;5.30;;;3.77;;
13163;SDS011;6647;53.688;10.746;2023-12-14T05:11:20;7.13;;;3.77;;
13163;SDS011;6647;53.688;10.746;2023-12-14T05:12:20;7.80;;;3.97;;
13163;SDS011;6647;53.688;10.746;2023-12-14T05:13:20;7.93;;;4.33;;
13163;SDS011;6647;53.688;10.746;2023-12-14T05:14:21;7.03;;;3.70;;
13163;SDS011;6647;53.688;10.746;2023-12-14T05:15:21;4.40;;;4.00;;
13163;SDS011;6647;53.688;10.746;2023-12-14T05:16:21;5.33;;;4.00;;
13163;SDS011;6647;53.688;10.746;2023-12-14T05:17:26;5.90;;;4.03;;
13163;SDS011;6647;53.688;10.746;2023-12-14T05:18:27;10.03;;;3.50;;
13163;SDS011;6647;53.688;10.746;2023-12-14T05:19:27;5.80;;;3.83;;
13163;SDS011;6647;53.688;10.746;2023-12-14T05:20:28;9.17;;;4.17;;
13163;SDS011;6647;53.688;10.746;2023-12-14T05:21:28;4.87;;;3.97;;
13163;SDS011;6647;53.688;10.746;2023-12-14T05:22:28;6.23;;;4.07;;
13163;SDS011;6647;53.688;10.746;2023-12-14T05:23:29;6.23;;;3.67;;
13163;SDS011;6647;53.688;10.746;2023-12-14T05:24:29;4.17;;;3.60;;
13163;SDS011;6647;53.688;10.746;2023-12-14T05:25:29;5.23;;;3.80;;
13163;SDS011;6647;53.688;10.746;2023-12-14T05:26:30;5.77;;;3.63;;
13163;SDS011;6647;53.688;10.746;2023-12-14T05:27:30;10.33;;;5.00;;
13163;SDS011;6647;53.688;10.746;2023-12-14T05:28:30;7.03;;;4.20;;
13163;SDS011;6647;53.688;10.746;2023-12-14T05:29:31;6.70;;;4.10;;
13163;SDS011;6647;53.688;10.746;2023-12-14T05:30:33;7.88;;;4.85;;
13163;SDS011;6647;53.688;10.746;2023-12-14T05:31:33;7.73;;;4.40;;
13163;SDS011;6647;53.688;10.746;2023-12-14T05:32:34;8.90;;;5.13;;
13163;SDS011;6647;53.688;10.746;2023-12-14T05:33:37;10.67;;;4.77;;
13163;SDS011;6647;53.688;10.746;2023-12-14T05:34:38;6.72;;;4.78;;
13163;SDS011;6647;53.688;10.746;2023-12-14T05:35:38;7.40;;;4.93;;
13163;SDS011;6647;53.688;10.746;2023-12-14T05:36:38;8.03;;;4.67;;
13163;SDS011;6647;53.688;10.746;2023-12-14T05:37:39;11.63;;;5.50;;
13163;SDS011;6647;53.688;10.746;2023-12-14T05:38:40;8.70;;;5.05;;
13163;SDS011;6647;53.688;10.746;2023-12-14T05:39:41;9.85;;;4.82;;
13163;SDS011;6647;53.688;10.746;2023-12-14T05:40:43;10.23;;;5.13;;
13163;SDS011;6647;53.688;10.746;2023-12-14T05:41:43;9.17;;;5.13;;
13163;SDS011;6647;53.688;10.746;2023-12-14T05:42:44;10.03;;;4.80;;
13163;SDS011;6647;53.688;10.746;2023-12-14T05:43:44;10.07;;;4.70;;
13163;SDS011;6647;53.688;10.746;2023-12-14T05:44:44;6.23;;;4.57;;
13163;SDS011;6647;53.688;10.746;2023-12-14T05:45:45;9.13;;;4.70;;
13163;SDS011;6647;53.688;10.746;2023-12-14T05:46:45;9.43;;;4.97;;
13163;SDS011;6647;53.688;10.746;2023-12-14T05:47:45;9.27;;;4.70;;
13163;SDS011;6647;53.688;10.746;2023-12-14T05:48:46;7.93;;;4.57;;
13163;SDS011;6647;53.688;10.746;2023-12-14T05:49:46;9.40;;;4.57;;
13163;SDS011;6647;53.688;10.746;2023-12-14T05:50:46;10.93;;;4.97;;
13163;SDS011;6647;53.688;10.746;2023-12-14T05:51:46;8.00;;;5.17;;
13163;SDS011;6647;53.688;10.746;2023-12-14T05:52:47;4.90;;;4.50;;
13163;SDS011;6647;53.688;10.746;2023-12-14T05:53:47;8.83;;;4.63;;
13163;SDS011;6647;53.688;10.746;2023-12-14T05:54:47;11.70;;;4.80;;
13163;SDS011;6647;53.688;10.746;2023-12-14T05:55:48;6.97;;;4.23;;
13163;SDS011;6647;53.688;10.746;2023-12-14T05:56:48;5.90;;;4.70;;
13163;SDS011;6647;53.688;10.746;2023-12-14T05:57:49;7.87;;;4.30;;
13163;SDS011;6647;53.688;10.746;2023-12-14T05:58:50;7.10;;;4.40;;
13163;SDS011;6647;53.688;10.746;2023-12-14T05:59:50;8.40;;;4.60;;
13163;SDS011;6647;53.688;10.746;2023-12-14T06:00:51;7.47;;;4.77;;
13163;SDS011;6647;53.688;10.746;2023-12-14T06:01:56;6.43;;;4.33;;
13163;SDS011;6647;53.688;10.746;2023-12-14T06:02:57;7.22;;;3.90;;
13163;SDS011;6647;53.688;10.746;2023-12-14T06:03:57;8.60;;;5.00;;
13163;SDS011;6647;53.688;10.746;2023-12-14T06:04:57;7.00;;;3.87;;
13163;SDS011;6647;53.688;10.746;2023-12-14T06:05:58;9.30;;;5.27;;